sensor_id;sensor_type;location;lat;lon;timestamp;P1;durP1;ratioP1;P2;durP2;ratioP2
12222;SDS011;6174;49.058;8.524;2023-04-06T05:00:28;5.83;;;5.33;;
12222;SDS011;6174;49.058;8.524;2023-04-06T05:02:55;6.13;;;5.53;;
12222;SDS011;6174;49.058;8.524;2023-04-06T05:05:22;5.50;;;5.00;;
12222;SDS011;6174;49.058;8.524;2023-04-06T05:07:49;5.90;;;5.40;;
12222;SDS011;6174;49.058;8.524;2023-04-06T05:10:16;5.77;;;5.27;;
12222;SDS011;6174;49.058;8.524;2023-04-06T05:12:43;5.90;;;5.40;;
12222;SDS011;6174;49.058;8.524;2023-04-06T05:15:10;6.97;;;5.17;;
12222;SDS011;6174;49.058;8.524;2023-04-06T05:17:39;5.83;;;5.33;;
12222;SDS011;6174;49.058;8.524;2023-04-06T05:20:06;5.57;;;5.07;;
12222;SDS011;6174;49.058;8.524;2023-04-06T05:22:34;5.90;;;5.40;;
12222;SDS011;6174;49.058;8.524;2023-04-06T05:25:01;5.97;;;4.90;;
12222;SDS011;6174;49.058;8.524;2023-04-06T05:27:28;6.03;;;5.30;;
12222;SDS011;6174;49.058;8.524;2023-04-06T05:29:55;5.70;;;5.20;;
12222;SDS011;6174;49.058;8.524;2023-04-06T05:32:22;5.30;;;4.80;;
12222;SDS011;6174;49.058;8.524;2023-04-06T05:34:51;5.73;;;5.13;;
12222;SDS011;6174;49.058;8.524;2023-04-06T05:37:18;5.93;;;5.07;;
12222;SDS011;6174;49.058;8.524;2023-04-06T05:39:45;5.73;;;5.10;;
12222;SDS011;6174;49.058;8.524;2023-04-06T05:42:12;5.50;;;5.00;;
12222;SDS011;6174;49.058;8.524;2023-04-06T05:44:39;5.83;;;5.23;;
12222;SDS011;6174;49.058;8.524;2023-04-06T05:47:06;6.63;;;6.03;;
12222;SDS011;6174;49.058;8.524;2023-04-06T05:49:33;6.77;;;6.07;;
12222;SDS011;6174;49.058;8.524;2023-04-06T05:52:01;6.80;;;6.20;;
12222;SDS011;6174;49.058;8.524;2023-04-06T05:54:29;6.43;;;5.83;;
12222;SDS011;6174;49.058;8.524;2023-04-06T05:56:56;6.80;;;5.77;;
12222;SDS011;6174;49.058;8.524;2023-04-06T05:59:23;6.27;;;5.67;;
12222;SDS011;6174;49.058;8.524;2023-04-06T06:01:50;7.73;;;5.53;;
12222;SDS011;6174;49.058;8.524;2023-04-06T06:04:17;6.43;;;5.93;;
12222;SDS011;6174;49.058;8.524;2023-04-06T06:06:44;6.73;;;5.77;;
12222;SDS011;6174;49.058;8.524;2023-04-06T06:09:12;6.27;;;5.67;;
12222;SDS011;6174;49.058;8.524;2023-04-06T06:11:39;5.80;;;5.30;;
12222;SDS011;6174;49.058;8.524;2023-04-06T06:14:07;6.80;;;6.10;;
12222;SDS011;6174;49.058;8.524;2023-04-06T06:16:33;8.07;;;5.47;;
12222;SDS011;6174;49.058;8.524;2023-04-06T06:19:01;6.00;;;5.50;;
12222;SDS011;6174;49.058;8.524;2023-04-06T06:21:28;6.93;;;5.67;;
12222;SDS011;6174;49.058;8.524;2023-04-06T06:23:55;6.20;;;5.60;;
12222;SDS011;6174;49.058;8.524;2023-04-06T06:26:24;6.80;;;6.07;;
12222;SDS011;6174;49.058;8.524;2023-04-06T06:28:52;7.43;;;6.00;;
12222;SDS011;6174;49.058;8.524;2023-04-06T06:31:19;6.37;;;5.77;;
12222;SDS011;6174;49.058;8.524;2023-04-06T06:33:47;6.03;;;5.43;;
12222;SDS011;6174;49.058;8.524;2023-04-06T06:36:15;5.53;;;5.07;;
12222;SDS011;6174;49.058;8.524;2023-04-06T06:38:42;6.03;;;5.43;;
12222;SDS011;6174;49.058;8.524;2023-04-06T06:41:09;5.17;;;4.70;;
12222;SDS011;6174;49.058;8.524;2023-04-06T06:43:38;5.00;;;4.60;;
12222;SDS011;6174;49.058;8.524;2023-04-06T06:46:05;5.33;;;4.73;;
12222;SDS011;6174;49.058;8.524;2023-04-06T06:48:32;5.77;;;4.80;;
12222;SDS011;6174;49.058;8.524;2023-04-06T06:50:59;4.70;;;4.30;;
12222;SDS011;6174;49.058;8.524;2023-04-06T06:53:26;4.97;;;4.30;;
12222;SDS011;6174;49.058;8.524;2023-04-06T06:55:53;5.27;;;4.77;;
12222;SDS011;6174;49.058;8.524;2023-04-06T06:58:21;5.43;;;4.93;;
12222;SDS011;6174;49.058;8.524;2023-04-06T07:00:49;5.37;;;4.87;;
12222;SDS011;6174;49.058;8.524;2023-04-06T07:03:16;5.33;;;4.83;;
12222;SDS011;6174;49.058;8.524;2023-04-06T07:05:45;5.73;;;4.77;;
12222;SDS011;6174;49.058;8.524;2023-04-06T07:08:17;5.97;;;4.70;;
12222;SDS011;6174;49.058;8.524;2023-04-06T07:10:44;5.87;;;5.27;;
12222;SDS011;6174;49.058;8.524;2023-04-06T07:13:11;4.50;;;4.10;;
12222;SDS011;6174;49.058;8.524;2023-04-06T07:15:43;5.47;;;4.67;;
12222;SDS011;6174;49.058;8.524;2023-04-06T07:18:11;4.97;;;4.57;;
12222;SDS011;6174;49.058;8.524;2023-04-06T07:20:38;5.10;;;4.37;;
12222;SDS011;6174;49.058;8.524;2023-04-06T07:23:05;4.50;;;4.10;;
12222;SDS011;6174;49.058;8.524;2023-04-06T07:25:32;4.80;;;4.30;;
12222;SDS011;6174;49.058;8.524;2023-04-06T07:27:59;6.10;;;4.37;;
12222;SDS011;6174;49.058;8.524;2023-04-06T07:30:26;5.30;;;4.80;;
12222;SDS011;6174;49.058;8.524;2023-04-06T07:32:54;5.03;;;4.20;;
12222;SDS011;6174;49.058;8.524;2023-04-06T07:35:23;5.40;;;4.27;;
12222;SDS011;6174;49.058;8.524;2023-04-06T07:37:49;4.67;;;4.30;;
12222;SDS011;6174;49.058;8.524;2023-04-06T07:40:16;4.40;;;4.00;;
12222;SDS011;6174;49.058;8.524;2023-04-06T07:42:44;6.10;;;4.03;;
12222;SDS011;6174;49.058;8.524;2023-04-06T07:45:11;4.83;;;4.30;;
12222;SDS011;6174;49.058;8.524;2023-04-06T07:47:39;4.83;;;4.23;;
12222;SDS011;6174;49.058;8.524;2023-04-06T07:50:06;4.63;;;4.17;;
12222;SDS011;6174;49.058;8.524;2023-04-06T07:52:35;4.83;;;4.43;;
12222;SDS011;6174;49.058;8.524;2023-04-06T07:55:01;4.80;;;4.40;;
12222;SDS011;6174;49.058;8.524;2023-04-06T07:57:29;4.60;;;4.13;;
12222;SDS011;6174;49.058;8.524;2023-04-06T07:59:56;4.93;;;4.53;;
12222;SDS011;6174;49.058;8.524;2023-04-06T08:02:22;4.80;;;4.30;;
12222;SDS011;6174;49.058;8.524;2023-04-06T08:04:49;4.97;;;4.37;;
12222;SDS011;6174;49.058;8.524;2023-04-06T08:07:16;6.07;;;5.10;;
12222;SDS011;6174;49.058;8.524;2023-04-06T08:09:45;6.27;;;4.50;;
12222;SDS011;6174;49.058;8.524;2023-04-06T08:12:11;4.70;;;4.30;;
12222;SDS011;6174;49.058;8.524;2023-04-06T08:14:39;5.60;;;4.83;;
12222;SDS011;6174;49.058;8.524;2023-04-06T08:17:05;4.50;;;4.10;;
12222;SDS011;6174;49.058;8.524;2023-04-06T08:19:32;5.00;;;4.50;;
12222;SDS011;6174;49.058;8.524;2023-04-06T08:21:59;5.03;;;4.53;;
12222;SDS011;6174;49.058;8.524;2023-04-06T08:24:27;5.47;;;4.87;;
12222;SDS011;6174;49.058;8.524;2023-04-06T08:26:55;6.97;;;4.97;;
12222;SDS011;6174;49.058;8.524;2023-04-06T08:29:22;4.77;;;4.37;;
12222;SDS011;6174;49.058;8.524;2023-04-06T08:31:49;4.70;;;4.00;;
12222;SDS011;6174;49.058;8.524;2023-04-06T08:34:16;4.40;;;4.00;;
12222;SDS011;6174;49.058;8.524;2023-04-06T08:36:43;4.37;;;3.97;;
12222;SDS011;6174;49.058;8.524;2023-04-06T08:39:10;4.73;;;4.10;;
12222;SDS011;6174;49.058;8.524;2023-04-06T08:41:37;4.23;;;3.83;;
12222;SDS011;6174;49.058;8.524;2023-04-06T08:44:06;4.40;;;4.00;;
12222;SDS011;6174;49.058;8.524;2023-04-06T08:46:33;4.50;;;3.93;;
12222;SDS011;6174;49.058;8.524;2023-04-06T08:49:01;5.60;;;4.10;;
12222;SDS011;6174;49.058;8.524;2023-04-06T08:51:31;4.70;;;4.03;;
12222;SDS011;6174;49.058;8.524;2023-04-06T08:53:59;4.70;;;4.20;;
12222;SDS011;6174;49.058;8.524;2023-04-06T08:56:27;3.97;;;3.50;;
12222;SDS011;6174;49.058;8.524;2023-04-06T08:58:54;4.70;;;4.13;;
12222;SDS011;6174;49.058;8.524;2023-04-06T09:01:26;4.40;;;4.00;;
12222;SDS011;6174;49.058;8.524;2023-04-06T09:03:55;4.43;;;4.10;;
12222;SDS011;6174;49.058;8.524;2023-04-06T09:06:25;4.37;;;4.07;;
12222;SDS011;6174;49.058;8.524;2023-04-06T09:08:53;4.37;;;3.97;;
12222;SDS011;6174;49.058;8.524;2023-04-06T09:11:20;5.27;;;3.93;;
12222;SDS011;6174;49.058;8.524;2023-04-06T09:13:48;4.50;;;4.10;;
12222;SDS011;6174;49.058;8.524;2023-04-06T09:16:16;6.83;;;3.77;;
12222;SDS011;6174;49.058;8.524;2023-04-06T09:18:45;4.40;;;4.03;;
12222;SDS011;6174;49.058;8.524;2023-04-06T09:21:13;4.17;;;3.87;;
12222;SDS011;6174;49.058;8.524;2023-04-06T09:23:42;5.80;;;4.43;;
12222;SDS011;6174;49.058;8.524;2023-04-06T09:26:10;4.97;;;4.00;;
12222;SDS011;6174;49.058;8.524;2023-04-06T09:28:44;6.07;;;4.47;;
12222;SDS011;6174;49.058;8.524;2023-04-06T09:31:13;5.43;;;4.30;;
12222;SDS011;6174;49.058;8.524;2023-04-06T09:33:41;5.77;;;4.53;;
12222;SDS011;6174;49.058;8.524;2023-04-06T09:36:11;5.07;;;4.57;;
12222;SDS011;6174;49.058;8.524;2023-04-06T09:38:51;5.07;;;4.63;;
12222;SDS011;6174;49.058;8.524;2023-04-06T09:41:23;4.50;;;4.10;;
12222;SDS011;6174;49.058;8.524;2023-04-06T09:43:50;5.40;;;4.93;;
12222;SDS011;6174;49.058;8.524;2023-04-06T09:46:18;5.07;;;4.57;;
12222;SDS011;6174;49.058;8.524;2023-04-06T09:48:48;6.80;;;5.03;;
12222;SDS011;6174;49.058;8.524;2023-04-06T09:51:17;5.03;;;4.53;;
12222;SDS011;6174;49.058;8.524;2023-04-06T09:53:45;5.70;;;5.13;;
12222;SDS011;6174;49.058;8.524;2023-04-06T09:56:20;7.57;;;4.67;;
12222;SDS011;6174;49.058;8.524;2023-04-06T09:58:52;5.70;;;5.20;;
12222;SDS011;6174;49.058;8.524;2023-04-06T10:01:22;5.67;;;5.00;;
12222;SDS011;6174;49.058;8.524;2023-04-06T10:03:55;5.30;;;4.80;;
12222;SDS011;6174;49.058;8.524;2023-04-06T10:06:31;5.27;;;4.77;;
12222;SDS011;6174;49.058;8.524;2023-04-06T10:09:01;5.60;;;4.67;;
12222;SDS011;6174;49.058;8.524;2023-04-06T10:11:29;5.53;;;5.03;;
12222;SDS011;6174;49.058;8.524;2023-04-06T10:13:57;5.53;;;5.03;;
12222;SDS011;6174;49.058;8.524;2023-04-06T10:16:24;5.70;;;5.10;;
12222;SDS011;6174;49.058;8.524;2023-04-06T10:18:54;5.57;;;5.07;;
12222;SDS011;6174;49.058;8.524;2023-04-06T10:21:25;6.13;;;5.20;;
12222;SDS011;6174;49.058;8.524;2023-04-06T10:23:55;5.60;;;5.10;;
12222;SDS011;6174;49.058;8.524;2023-04-06T10:26:25;5.60;;;5.00;;
12222;SDS011;6174;49.058;8.524;2023-04-06T10:28:52;6.10;;;5.50;;
12222;SDS011;6174;49.058;8.524;2023-04-06T10:31:28;5.60;;;5.20;;
12222;SDS011;6174;49.058;8.524;2023-04-06T10:33:56;6.00;;;5.20;;
12222;SDS011;6174;49.058;8.524;2023-04-06T10:36:25;6.57;;;5.20;;
12222;SDS011;6174;49.058;8.524;2023-04-06T10:38:55;4.93;;;4.43;;
12222;SDS011;6174;49.058;8.524;2023-04-06T10:41:24;5.00;;;4.50;;
12222;SDS011;6174;49.058;8.524;2023-04-06T10:43:58;7.67;;;5.03;;
12222;SDS011;6174;49.058;8.524;2023-04-06T10:46:26;5.03;;;4.53;;
12222;SDS011;6174;49.058;8.524;2023-04-06T10:48:55;5.30;;;4.80;;
12222;SDS011;6174;49.058;8.524;2023-04-06T10:51:24;5.33;;;4.83;;
12222;SDS011;6174;49.058;8.524;2023-04-06T10:53:55;5.77;;;5.20;;
12222;SDS011;6174;49.058;8.524;2023-04-06T10:56:23;5.70;;;5.20;;
12222;SDS011;6174;49.058;8.524;2023-04-06T10:58:53;6.03;;;5.43;;
12222;SDS011;6174;49.058;8.524;2023-04-06T11:01:22;6.03;;;5.30;;
12222;SDS011;6174;49.058;8.524;2023-04-06T11:03:50;5.70;;;5.20;;
12222;SDS011;6174;49.058;8.524;2023-04-06T11:06:18;5.50;;;5.00;;
12222;SDS011;6174;49.058;8.524;2023-04-06T11:08:57;6.20;;;5.60;;
12222;SDS011;6174;49.058;8.524;2023-04-06T11:11:24;5.83;;;5.33;;
12222;SDS011;6174;49.058;8.524;2023-04-06T11:13:52;5.90;;;5.40;;
12222;SDS011;6174;49.058;8.524;2023-04-06T11:16:21;6.03;;;5.13;;
12222;SDS011;6174;49.058;8.524;2023-04-06T11:18:49;5.77;;;4.93;;
12222;SDS011;6174;49.058;8.524;2023-04-06T11:21:17;6.30;;;5.70;;
12222;SDS011;6174;49.058;8.524;2023-04-06T11:23:45;6.17;;;5.67;;
12222;SDS011;6174;49.058;8.524;2023-04-06T11:26:15;6.97;;;5.53;;
12222;SDS011;6174;49.058;8.524;2023-04-06T11:28:42;6.03;;;5.43;;
12222;SDS011;6174;49.058;8.524;2023-04-06T11:31:09;5.93;;;5.43;;
12222;SDS011;6174;49.058;8.524;2023-04-06T11:33:36;6.00;;;5.40;;
12222;SDS011;6174;49.058;8.524;2023-04-06T11:36:05;5.83;;;5.23;;
12222;SDS011;6174;49.058;8.524;2023-04-06T11:38:32;6.10;;;5.50;;
12222;SDS011;6174;49.058;8.524;2023-04-06T11:41:00;6.17;;;5.10;;
12222;SDS011;6174;49.058;8.524;2023-04-06T11:43:30;6.30;;;5.50;;
12222;SDS011;6174;49.058;8.524;2023-04-06T11:46:01;6.23;;;5.63;;
12222;SDS011;6174;49.058;8.524;2023-04-06T11:48:28;5.77;;;5.20;;
12222;SDS011;6174;49.058;8.524;2023-04-06T11:50:56;5.83;;;5.33;;
12222;SDS011;6174;49.058;8.524;2023-04-06T11:53:23;5.87;;;5.30;;
12222;SDS011;6174;49.058;8.524;2023-04-06T11:55:50;6.23;;;5.17;;
12222;SDS011;6174;49.058;8.524;2023-04-06T11:58:17;6.27;;;5.50;;
12222;SDS011;6174;49.058;8.524;2023-04-06T12:00:46;5.90;;;5.23;;
12222;SDS011;6174;49.058;8.524;2023-04-06T12:03:13;7.10;;;5.37;;
12222;SDS011;6174;49.058;8.524;2023-04-06T12:05:40;5.83;;;5.33;;
12222;SDS011;6174;49.058;8.524;2023-04-06T12:08:07;6.70;;;5.27;;
12222;SDS011;6174;49.058;8.524;2023-04-06T12:10:34;5.40;;;4.90;;
12222;SDS011;6174;49.058;8.524;2023-04-06T12:13:01;5.70;;;5.20;;
12222;SDS011;6174;49.058;8.524;2023-04-06T12:15:27;5.80;;;5.30;;
12222;SDS011;6174;49.058;8.524;2023-04-06T12:17:56;5.90;;;5.37;;
12222;SDS011;6174;49.058;8.524;2023-04-06T12:20:22;5.63;;;5.00;;
12222;SDS011;6174;49.058;8.524;2023-04-06T12:22:49;5.53;;;5.03;;
12222;SDS011;6174;49.058;8.524;2023-04-06T12:25:16;6.43;;;5.47;;
12222;SDS011;6174;49.058;8.524;2023-04-06T12:27:43;5.87;;;4.93;;
12222;SDS011;6174;49.058;8.524;2023-04-06T12:30:11;6.30;;;5.70;;
12222;SDS011;6174;49.058;8.524;2023-04-06T12:32:38;7.63;;;5.23;;
12222;SDS011;6174;49.058;8.524;2023-04-06T12:35:07;6.17;;;4.93;;
12222;SDS011;6174;49.058;8.524;2023-04-06T12:37:36;5.20;;;4.80;;
12222;SDS011;6174;49.058;8.524;2023-04-06T12:40:04;6.00;;;5.50;;
12222;SDS011;6174;49.058;8.524;2023-04-06T12:42:31;5.53;;;4.93;;
12222;SDS011;6174;49.058;8.524;2023-04-06T12:44:58;5.73;;;5.10;;
12222;SDS011;6174;49.058;8.524;2023-04-06T12:47:25;5.70;;;5.20;;
12222;SDS011;6174;49.058;8.524;2023-04-06T12:49:52;5.83;;;5.10;;
12222;SDS011;6174;49.058;8.524;2023-04-06T12:52:21;5.40;;;4.90;;
12222;SDS011;6174;49.058;8.524;2023-04-06T12:54:48;5.73;;;5.23;;
12222;SDS011;6174;49.058;8.524;2023-04-06T12:57:16;5.60;;;5.10;;
12222;SDS011;6174;49.058;8.524;2023-04-06T12:59:43;5.60;;;5.10;;
12222;SDS011;6174;49.058;8.524;2023-04-06T13:02:11;5.43;;;4.93;;
12222;SDS011;6174;49.058;8.524;2023-04-06T13:04:38;5.63;;;4.90;;
12222;SDS011;6174;49.058;8.524;2023-04-06T13:07:05;5.67;;;5.13;;
12222;SDS011;6174;49.058;8.524;2023-04-06T13:09:33;5.80;;;5.00;;
12222;SDS011;6174;49.058;8.524;2023-04-06T13:12:00;6.07;;;5.47;;
12222;SDS011;6174;49.058;8.524;2023-04-06T13:14:27;5.93;;;5.17;;
12222;SDS011;6174;49.058;8.524;2023-04-06T13:16:54;6.10;;;4.90;;
12222;SDS011;6174;49.058;8.524;2023-04-06T13:19:20;5.60;;;5.10;;
12222;SDS011;6174;49.058;8.524;2023-04-06T13:21:47;5.60;;;5.00;;
12222;SDS011;6174;49.058;8.524;2023-04-06T13:24:14;6.03;;;5.00;;
12222;SDS011;6174;49.058;8.524;2023-04-06T13:26:42;7.10;;;5.63;;
12222;SDS011;6174;49.058;8.524;2023-04-06T13:29:09;5.87;;;5.27;;
12222;SDS011;6174;49.058;8.524;2023-04-06T13:31:36;6.57;;;5.87;;
12222;SDS011;6174;49.058;8.524;2023-04-06T13:34:03;6.03;;;5.53;;
12222;SDS011;6174;49.058;8.524;2023-04-06T13:36:30;5.30;;;4.90;;
12222;SDS011;6174;49.058;8.524;2023-04-06T13:38:58;5.97;;;5.40;;
12222;SDS011;6174;49.058;8.524;2023-04-06T13:41:25;7.87;;;5.20;;
12222;SDS011;6174;49.058;8.524;2023-04-06T13:43:53;5.80;;;5.20;;
12222;SDS011;6174;49.058;8.524;2023-04-06T13:46:20;5.50;;;5.00;;
12222;SDS011;6174;49.058;8.524;2023-04-06T13:48:48;7.13;;;4.93;;
12222;SDS011;6174;49.058;8.524;2023-04-06T13:51:16;6.17;;;4.60;;
12222;SDS011;6174;49.058;8.524;2023-04-06T13:53:42;5.70;;;5.20;;
12222;SDS011;6174;49.058;8.524;2023-04-06T13:56:09;5.60;;;5.10;;
12222;SDS011;6174;49.058;8.524;2023-04-06T13:58:36;5.83;;;5.23;;
12222;SDS011;6174;49.058;8.524;2023-04-06T14:01:05;6.20;;;4.83;;
12222;SDS011;6174;49.058;8.524;2023-04-06T14:03:34;5.53;;;4.77;;
12222;SDS011;6174;49.058;8.524;2023-04-06T14:06:01;5.07;;;4.67;;
12222;SDS011;6174;49.058;8.524;2023-04-06T14:08:36;5.37;;;4.87;;
12222;SDS011;6174;49.058;8.524;2023-04-06T14:11:03;4.60;;;4.03;;
12222;SDS011;6174;49.058;8.524;2023-04-06T14:13:30;6.73;;;4.60;;
12222;SDS011;6174;49.058;8.524;2023-04-06T14:15:57;7.30;;;4.37;;
12222;SDS011;6174;49.058;8.524;2023-04-06T14:18:25;7.43;;;4.53;;
12222;SDS011;6174;49.058;8.524;2023-04-06T14:20:55;5.63;;;4.40;;
12222;SDS011;6174;49.058;8.524;2023-04-06T14:23:23;4.57;;;4.17;;
12222;SDS011;6174;49.058;8.524;2023-04-06T14:26:00;5.87;;;4.70;;
12222;SDS011;6174;49.058;8.524;2023-04-06T14:28:31;4.83;;;4.43;;
12222;SDS011;6174;49.058;8.524;2023-04-06T14:30:58;4.57;;;4.13;;
12222;SDS011;6174;49.058;8.524;2023-04-06T14:33:27;5.50;;;4.00;;
12222;SDS011;6174;49.058;8.524;2023-04-06T14:35:55;4.30;;;3.90;;
12222;SDS011;6174;49.058;8.524;2023-04-06T14:38:22;4.13;;;3.73;;
12222;SDS011;6174;49.058;8.524;2023-04-06T14:40:49;3.90;;;3.50;;
12222;SDS011;6174;49.058;8.524;2023-04-06T14:43:16;4.40;;;4.00;;
12222;SDS011;6174;49.058;8.524;2023-04-06T14:45:42;4.43;;;4.03;;
12222;SDS011;6174;49.058;8.524;2023-04-06T14:48:09;4.23;;;3.80;;
12222;SDS011;6174;49.058;8.524;2023-04-06T14:50:38;4.53;;;4.13;;
12222;SDS011;6174;49.058;8.524;2023-04-06T14:53:05;6.00;;;4.40;;
12222;SDS011;6174;49.058;8.524;2023-04-06T14:55:32;5.40;;;4.90;;
12222;SDS011;6174;49.058;8.524;2023-04-06T14:57:59;5.93;;;5.07;;
12222;SDS011;6174;49.058;8.524;2023-04-06T15:00:26;9.13;;;5.53;;
12222;SDS011;6174;49.058;8.524;2023-04-06T15:02:52;6.43;;;5.60;;
12222;SDS011;6174;49.058;8.524;2023-04-06T15:05:19;6.57;;;5.73;;
12222;SDS011;6174;49.058;8.524;2023-04-06T15:07:47;5.43;;;4.93;;
12222;SDS011;6174;49.058;8.524;2023-04-06T15:10:14;5.97;;;5.37;;
12222;SDS011;6174;49.058;8.524;2023-04-06T15:12:41;6.23;;;5.57;;
12222;SDS011;6174;49.058;8.524;2023-04-06T15:15:08;6.77;;;5.70;;
12222;SDS011;6174;49.058;8.524;2023-04-06T15:17:35;8.97;;;5.40;;
12222;SDS011;6174;49.058;8.524;2023-04-06T15:20:02;5.87;;;5.27;;
12222;SDS011;6174;49.058;8.524;2023-04-06T15:22:30;7.90;;;5.33;;
12222;SDS011;6174;49.058;8.524;2023-04-06T15:24:58;7.37;;;4.83;;
12222;SDS011;6174;49.058;8.524;2023-04-06T15:27:24;7.00;;;4.57;;
12222;SDS011;6174;49.058;8.524;2023-04-06T15:29:51;6.23;;;4.90;;
12222;SDS011;6174;49.058;8.524;2023-04-06T15:32:18;5.20;;;4.60;;
12222;SDS011;6174;49.058;8.524;2023-04-06T15:34:45;6.53;;;5.47;;
12222;SDS011;6174;49.058;8.524;2023-04-06T15:37:12;5.87;;;4.87;;
12222;SDS011;6174;49.058;8.524;2023-04-06T15:39:39;5.23;;;4.67;;
12222;SDS011;6174;49.058;8.524;2023-04-06T15:42:07;6.33;;;4.77;;
12222;SDS011;6174;49.058;8.524;2023-04-06T15:44:34;6.30;;;4.90;;
12222;SDS011;6174;49.058;8.524;2023-04-06T15:47:00;6.30;;;4.57;;
12222;SDS011;6174;49.058;8.524;2023-04-06T15:49:27;7.17;;;5.27;;
12222;SDS011;6174;49.058;8.524;2023-04-06T15:51:54;5.03;;;4.47;;
12222;SDS011;6174;49.058;8.524;2023-04-06T15:54:21;6.33;;;5.30;;
12222;SDS011;6174;49.058;8.524;2023-04-06T15:56:47;5.77;;;4.80;;
12222;SDS011;6174;49.058;8.524;2023-04-06T15:59:16;7.43;;;5.27;;
12222;SDS011;6174;49.058;8.524;2023-04-06T16:01:44;5.80;;;5.20;;
12222;SDS011;6174;49.058;8.524;2023-04-06T16:04:17;7.77;;;5.50;;
12222;SDS011;6174;49.058;8.524;2023-04-06T16:06:45;6.23;;;5.17;;
12222;SDS011;6174;49.058;8.524;2023-04-06T16:09:11;6.57;;;5.33;;
12222;SDS011;6174;49.058;8.524;2023-04-06T16:11:38;5.57;;;4.97;;
12222;SDS011;6174;49.058;8.524;2023-04-06T16:14:05;5.40;;;4.87;;
12222;SDS011;6174;49.058;8.524;2023-04-06T16:16:34;7.20;;;5.07;;
12222;SDS011;6174;49.058;8.524;2023-04-06T16:19:01;5.73;;;4.70;;
12222;SDS011;6174;49.058;8.524;2023-04-06T16:21:28;5.43;;;4.53;;
12222;SDS011;6174;49.058;8.524;2023-04-06T16:23:55;5.93;;;4.70;;
12222;SDS011;6174;49.058;8.524;2023-04-06T16:26:22;5.33;;;4.30;;
12222;SDS011;6174;49.058;8.524;2023-04-06T16:28:49;5.30;;;4.80;;
12222;SDS011;6174;49.058;8.524;2023-04-06T16:31:17;5.50;;;5.00;;
12222;SDS011;6174;49.058;8.524;2023-04-06T16:33:46;7.27;;;5.17;;
12222;SDS011;6174;49.058;8.524;2023-04-06T16:36:14;6.33;;;5.13;;
12222;SDS011;6174;49.058;8.524;2023-04-06T16:38:46;8.17;;;5.73;;
12222;SDS011;6174;49.058;8.524;2023-04-06T16:41:13;5.70;;;4.83;;
12222;SDS011;6174;49.058;8.524;2023-04-06T16:43:40;5.70;;;4.53;;
12222;SDS011;6174;49.058;8.524;2023-04-06T16:46:06;5.77;;;5.27;;
12222;SDS011;6174;49.058;8.524;2023-04-06T16:48:33;4.03;;;3.63;;
12222;SDS011;6174;49.058;8.524;2023-04-06T16:51:04;3.47;;;3.07;;
12222;SDS011;6174;49.058;8.524;2023-04-06T16:53:31;4.10;;;3.70;;
12222;SDS011;6174;49.058;8.524;2023-04-06T16:55:58;4.60;;;3.40;;
12222;SDS011;6174;49.058;8.524;2023-04-06T16:58:25;5.13;;;4.37;;
12222;SDS011;6174;49.058;8.524;2023-04-06T17:00:51;4.63;;;3.93;;
12222;SDS011;6174;49.058;8.524;2023-04-06T17:03:18;4.67;;;4.03;;
12222;SDS011;6174;49.058;8.524;2023-04-06T17:05:45;5.30;;;4.03;;
12222;SDS011;6174;49.058;8.524;2023-04-06T17:08:13;3.77;;;3.37;;
12222;SDS011;6174;49.058;8.524;2023-04-06T17:10:40;5.13;;;3.70;;
12222;SDS011;6174;49.058;8.524;2023-04-06T17:13:06;3.63;;;3.33;;
12222;SDS011;6174;49.058;8.524;2023-04-06T17:15:33;3.53;;;2.93;;
12222;SDS011;6174;49.058;8.524;2023-04-06T17:18:00;3.77;;;3.20;;
12222;SDS011;6174;49.058;8.524;2023-04-06T17:20:27;4.43;;;3.50;;
12222;SDS011;6174;49.058;8.524;2023-04-06T17:22:54;4.07;;;2.80;;
12222;SDS011;6174;49.058;8.524;2023-04-06T17:25:22;3.60;;;3.30;;
12222;SDS011;6174;49.058;8.524;2023-04-06T17:27:49;3.97;;;3.30;;
12222;SDS011;6174;49.058;8.524;2023-04-06T17:30:15;3.63;;;3.30;;
12222;SDS011;6174;49.058;8.524;2023-04-06T17:32:42;4.13;;;3.60;;
12222;SDS011;6174;49.058;8.524;2023-04-06T17:35:10;3.80;;;3.40;;
12222;SDS011;6174;49.058;8.524;2023-04-06T17:37:37;5.33;;;3.20;;
12222;SDS011;6174;49.058;8.524;2023-04-06T17:40:05;3.33;;;3.03;;
12222;SDS011;6174;49.058;8.524;2023-04-06T17:42:34;3.67;;;3.30;;
12222;SDS011;6174;49.058;8.524;2023-04-06T17:45:00;3.27;;;2.83;;
12222;SDS011;6174;49.058;8.524;2023-04-06T17:47:27;4.60;;;3.30;;
12222;SDS011;6174;49.058;8.524;2023-04-06T17:49:56;4.57;;;4.17;;
12222;SDS011;6174;49.058;8.524;2023-04-06T17:52:23;5.10;;;4.43;;
12222;SDS011;6174;49.058;8.524;2023-04-06T17:54:50;5.07;;;4.63;;
12222;SDS011;6174;49.058;8.524;2023-04-06T17:57:17;5.00;;;4.50;;
12222;SDS011;6174;49.058;8.524;2023-04-06T17:59:45;6.40;;;4.20;;
12222;SDS011;6174;49.058;8.524;2023-04-06T18:02:12;6.13;;;3.90;;
12222;SDS011;6174;49.058;8.524;2023-04-06T18:04:38;4.10;;;3.70;;
12222;SDS011;6174;49.058;8.524;2023-04-06T18:07:08;4.60;;;3.77;;
12222;SDS011;6174;49.058;8.524;2023-04-06T18:09:35;4.90;;;4.50;;
12222;SDS011;6174;49.058;8.524;2023-04-06T18:12:02;4.63;;;4.23;;
12222;SDS011;6174;49.058;8.524;2023-04-06T18:14:29;4.20;;;3.80;;
12222;SDS011;6174;49.058;8.524;2023-04-06T18:16:57;4.53;;;4.13;;
12222;SDS011;6174;49.058;8.524;2023-04-06T18:19:24;5.30;;;4.50;;
12222;SDS011;6174;49.058;8.524;2023-04-06T18:21:52;4.40;;;4.00;;
12222;SDS011;6174;49.058;8.524;2023-04-06T18:24:19;4.27;;;3.87;;
12222;SDS011;6174;49.058;8.524;2023-04-06T18:26:46;4.20;;;3.90;;
12222;SDS011;6174;49.058;8.524;2023-04-06T18:29:13;4.30;;;3.90;;
12222;SDS011;6174;49.058;8.524;2023-04-06T18:31:40;4.50;;;4.10;;
12222;SDS011;6174;49.058;8.524;2023-04-06T18:34:09;4.83;;;4.40;;
12222;SDS011;6174;49.058;8.524;2023-04-06T18:36:35;4.40;;;4.00;;
12222;SDS011;6174;49.058;8.524;2023-04-06T18:39:02;5.20;;;4.60;;
12222;SDS011;6174;49.058;8.524;2023-04-06T18:41:29;3.43;;;3.20;;
12222;SDS011;6174;49.058;8.524;2023-04-06T18:43:56;3.70;;;3.40;;
12222;SDS011;6174;49.058;8.524;2023-04-06T18:46:23;3.73;;;3.43;;
12222;SDS011;6174;49.058;8.524;2023-04-06T18:48:49;3.50;;;3.20;;
12222;SDS011;6174;49.058;8.524;2023-04-06T18:51:18;3.87;;;3.57;;
12222;SDS011;6174;49.058;8.524;2023-04-06T18:53:44;3.50;;;3.20;;
12222;SDS011;6174;49.058;8.524;2023-04-06T18:56:11;3.40;;;3.10;;
12222;SDS011;6174;49.058;8.524;2023-04-06T18:58:39;3.37;;;3.07;;
12222;SDS011;6174;49.058;8.524;2023-04-06T19:01:06;5.10;;;3.33;;
12222;SDS011;6174;49.058;8.524;2023-04-06T19:03:33;3.90;;;3.60;;
12222;SDS011;6174;49.058;8.524;2023-04-06T19:06:00;4.10;;;3.70;;
12222;SDS011;6174;49.058;8.524;2023-04-06T19:08:29;5.20;;;4.00;;
12222;SDS011;6174;49.058;8.524;2023-04-06T19:10:55;4.00;;;3.60;;
12222;SDS011;6174;49.058;8.524;2023-04-06T19:13:22;4.73;;;3.63;;
12222;SDS011;6174;49.058;8.524;2023-04-06T19:15:51;3.77;;;3.47;;
12222;SDS011;6174;49.058;8.524;2023-04-06T19:18:17;4.00;;;3.60;;
12222;SDS011;6174;49.058;8.524;2023-04-06T19:20:44;3.40;;;3.20;;
12222;SDS011;6174;49.058;8.524;2023-04-06T19:23:11;4.20;;;3.90;;
12222;SDS011;6174;49.058;8.524;2023-04-06T19:25:41;5.03;;;4.07;;
12222;SDS011;6174;49.058;8.524;2023-04-06T19:28:08;4.13;;;3.83;;
12222;SDS011;6174;49.058;8.524;2023-04-06T19:30:35;4.13;;;3.83;;
12222;SDS011;6174;49.058;8.524;2023-04-06T19:33:02;4.23;;;3.90;;
12222;SDS011;6174;49.058;8.524;2023-04-06T19:35:29;4.37;;;4.00;;
12222;SDS011;6174;49.058;8.524;2023-04-06T19:37:56;6.57;;;4.80;;
12222;SDS011;6174;49.058;8.524;2023-04-06T19:40:23;5.03;;;4.53;;
12222;SDS011;6174;49.058;8.524;2023-04-06T19:42:52;5.47;;;4.97;;
12222;SDS011;6174;49.058;8.524;2023-04-06T19:45:20;6.13;;;5.30;;
12222;SDS011;6174;49.058;8.524;2023-04-06T19:47:50;12.00;;;9.73;;
12222;SDS011;6174;49.058;8.524;2023-04-06T19:50:17;9.30;;;8.33;;
12222;SDS011;6174;49.058;8.524;2023-04-06T19:52:44;7.77;;;6.83;;
12222;SDS011;6174;49.058;8.524;2023-04-06T19:55:11;6.27;;;5.67;;
12222;SDS011;6174;49.058;8.524;2023-04-06T19:57:37;5.97;;;5.37;;
12222;SDS011;6174;49.058;8.524;2023-04-06T20:00:07;5.60;;;5.10;;
12222;SDS011;6174;49.058;8.524;2023-04-06T20:02:35;6.30;;;5.70;;